Time;durP1;ratioP1;P1;durP2;ratioP2;P2;SDS_P1;SDS_P2;PMS_P1;PMS_P2;Temp;Humidity;BMP_temperature;BMP_pressure;BME280_temperature;BME280_humidity;BME280_pressure;Samples;Min_cycle;Max_cycle;Signal;HPM_P1;HPM_P2
2021/09/20 00:00:40;;;;;;;0.10;0.10;;;11.40;99.90;;;;;;5069874;28;20165;-74
2021/09/20 00:03:05;;;;;;;0.22;0.22;;;11.40;99.90;;;;;;5069640;28;20172;-74
2021/09/20 00:05:32;;;;;;;0.80;0.80;;;11.30;99.90;;;;;;5069794;28;20200;-74
2021/09/20 00:07:58;;;;;;;0.73;0.73;;;11.30;99.90;;;;;;5068512;28;20314;-74
2021/09/20 00:10:24;;;;;;;0.20;0.20;;;11.20;99.90;;;;;;5069975;28;20179;-74
2021/09/20 00:12:50;;;;;;;1.17;0.85;;;11.10;99.90;;;;;;5071087;28;20169;-73
2021/09/20 00:15:16;;;;;;;0.82;0.82;;;11.10;99.90;;;;;;5053590;28;20636;-74
2021/09/20 00:17:42;;;;;;;0.10;0.10;;;11.10;99.90;;;;;;5070423;28;20172;-74
2021/09/20 00:20:10;;;;;;;0.20;0.15;;;11.00;99.90;;;;;;5069676;28;20179;-75
2021/09/20 00:22:37;;;;;;;1.38;0.98;;;11.00;99.90;;;;;;5069621;28;20236;-74
2021/09/20 00:25:05;;;;;;;3.20;0.55;;;11.00;99.90;;;;;;5069397;28;20279;-74
2021/09/20 00:27:31;;;;;;;0.20;0.20;;;11.00;99.90;;;;;;5067930;28;20200;-74
2021/09/20 00:29:57;;;;;;;2.17;0.40;;;10.90;99.90;;;;;;5069498;28;20157;-74
2021/09/20 00:32:23;;;;;;;0.70;0.70;;;10.80;99.90;;;;;;5068125;28;20240;-74
2021/09/20 00:34:50;;;;;;;0.52;0.52;;;10.80;99.90;;;;;;5069354;28;20169;-74
2021/09/20 00:37:17;;;;;;;0.10;0.10;;;10.80;99.90;;;;;;5068045;28;20232;-74
2021/09/20 00:39:43;;;;;;;0.73;0.73;;;10.80;99.90;;;;;;5067558;28;20172;-74
2021/09/20 00:42:09;;;;;;;0.50;0.50;;;10.80;99.90;;;;;;5069158;28;20179;-74
2021/09/20 00:44:36;;;;;;;0.30;0.30;;;10.80;99.90;;;;;;5069007;28;20165;-74
2021/09/20 00:47:03;;;;;;;0.20;0.20;;;10.80;99.90;;;;;;5068977;28;20192;-73
2021/09/20 00:49:28;;;;;;;0.98;0.98;;;10.70;99.90;;;;;;5067734;28;20181;-72
2021/09/20 00:51:55;;;;;;;1.02;1.02;;;10.70;99.90;;;;;;5068796;28;20259;-73
2021/09/20 00:54:21;;;;;;;0.68;0.68;;;10.70;99.90;;;;;;5050916;28;20191;-72
2021/09/20 00:56:47;;;;;;;0.10;0.10;;;10.70;99.90;;;;;;5068862;28;20196;-73
2021/09/20 00:59:13;;;;;;;0.95;0.95;;;10.70;99.90;;;;;;5068812;28;20290;-73
2021/09/20 01:01:39;;;;;;;0.63;0.63;;;10.70;99.90;;;;;;5068781;28;20187;-73
2021/09/20 01:04:07;;;;;;;2.90;0.75;;;10.70;99.90;;;;;;5068579;28;20246;-73
2021/09/20 01:06:32;;;;;;;0.10;0.10;;;10.80;99.90;;;;;;5068526;28;20200;-73
2021/09/20 01:08:58;;;;;;;1.10;0.85;;;10.90;99.90;;;;;;5068665;28;20173;-73
2021/09/20 01:11:25;;;;;;;1.02;0.45;;;10.80;99.90;;;;;;5067228;28;20520;-74
2021/09/20 01:13:51;;;;;;;0.65;0.65;;;10.70;99.90;;;;;;5067192;28;20191;-73
2021/09/20 01:16:17;;;;;;;0.03;0.03;;;10.70;99.90;;;;;;5068300;28;20200;-74
2021/09/20 01:18:43;;;;;;;0.15;0.15;;;10.60;99.90;;;;;;5068370;28;20165;-73
2021/09/20 01:21:13;;;;;;;2.47;1.95;;;10.60;99.90;;;;;;5050490;28;20179;-74
2021/09/20 01:23:40;;;;;;;0.85;0.85;;;10.70;99.90;;;;;;5050459;28;20179;-74
2021/09/20 01:26:05;;;;;;;0.85;0.75;;;10.70;99.90;;;;;;5050232;28;20200;-74
2021/09/20 01:28:32;;;;;;;0.17;0.17;;;10.70;99.90;;;;;;5067989;28;20192;-73
2021/09/20 01:30:58;;;;;;;0.10;0.10;;;10.70;99.90;;;;;;5068100;28;20196;-73
2021/09/20 01:33:24;;;;;;;0.40;0.40;;;10.70;99.90;;;;;;5050058;28;20176;-73
2021/09/20 01:35:50;;;;;;;1.15;0.45;;;10.60;99.90;;;;;;5068103;28;20276;-73
2021/09/20 01:38:16;;;;;;;1.92;0.73;;;10.60;99.90;;;;;;5066769;28;20244;-73
2021/09/20 01:40:42;;;;;;;0.85;0.35;;;10.60;99.90;;;;;;5068046;28;20248;-74
2021/09/20 01:43:08;;;;;;;0.30;0.30;;;10.60;99.90;;;;;;5067796;28;20343;-73
2021/09/20 01:45:34;;;;;;;0.90;0.30;;;10.60;99.90;;;;;;5067857;28;20196;-73
2021/09/20 01:48:00;;;;;;;1.23;0.60;;;10.60;99.90;;;;;;5067718;28;20185;-74
2021/09/20 01:50:26;;;;;;;1.75;0.52;;;10.60;99.90;;;;;;5067714;28;20256;-73
2021/09/20 01:52:52;;;;;;;0.73;0.73;;;10.60;99.90;;;;;;5067843;28;20176;-73
2021/09/20 01:55:18;;;;;;;0.77;0.77;;;10.60;99.90;;;;;;5049516;28;20220;-73
2021/09/20 01:57:44;;;;;;;0.08;0.08;;;10.50;99.90;;;;;;5066270;28;20181;-72
2021/09/20 02:00:12;;;;;;;0.40;0.40;;;10.40;99.90;;;;;;5049617;28;20191;-73
2021/09/20 02:02:39;;;;;;;0.75;0.75;;;10.30;99.90;;;;;;5067702;28;20196;-72
2021/09/20 02:05:06;;;;;;;0.30;0.15;;;10.20;99.90;;;;;;5067437;28;20219;-73
2021/09/20 02:07:32;;;;;;;0.10;0.10;;;10.10;99.90;;;;;;5067329;28;20212;-73
2021/09/20 02:09:59;;;;;;;0.20;0.20;;;10.00;99.90;;;;;;5066117;28;20184;-73
2021/09/20 02:12:24;;;;;;;0.00;0.00;;;10.00;99.90;;;;;;5049630;28;20181;-73
2021/09/20 02:14:51;;;;;;;0.20;0.20;;;10.00;99.90;;;;;;5067519;28;20248;-72
2021/09/20 02:17:16;;;;;;;0.95;0.95;;;10.00;99.90;;;;;;5067379;28;20180;-73
2021/09/20 02:19:42;;;;;;;0.32;0.32;;;10.00;99.90;;;;;;5049204;28;20264;-73
2021/09/20 02:22:09;;;;;;;0.57;0.57;;;10.00;99.90;;;;;;5067310;28;20168;-73
2021/09/20 02:24:35;;;;;;;0.05;0.05;;;10.00;99.90;;;;;;5067343;28;20168;-72
2021/09/20 02:27:01;;;;;;;0.10;0.10;;;10.00;99.90;;;;;;5067344;28;20242;-73
2021/09/20 02:29:27;;;;;;;1.77;0.32;;;9.90;99.90;;;;;;5050852;28;20170;-73
2021/09/20 02:31:53;;;;;;;0.10;0.10;;;10.00;99.90;;;;;;5067135;28;20172;-74
2021/09/20 02:34:19;;;;;;;0.38;0.38;;;9.90;99.90;;;;;;5049086;28;20234;-74
2021/09/20 02:36:45;;;;;;;2.20;0.70;;;9.90;99.90;;;;;;5064008;28;20204;-74
2021/09/20 02:39:11;;;;;;;0.55;0.55;;;9.90;99.90;;;;;;5067080;28;20177;-73
2021/09/20 02:41:38;;;;;;;0.25;0.25;;;9.90;99.90;;;;;;5067368;28;20680;-74
2021/09/20 02:44:04;;;;;;;0.20;0.20;;;9.80;99.90;;;;;;5067330;28;20228;-74
2021/09/20 02:46:30;;;;;;;1.67;1.58;;;9.80;99.90;;;;;;5049449;28;20211;-74
2021/09/20 02:48:56;;;;;;;0.10;0.10;;;9.90;99.90;;;;;;5067455;28;20196;-74
2021/09/20 02:51:22;;;;;;;0.55;0.55;;;9.90;99.90;;;;;;5066401;28;20283;-73
2021/09/20 02:53:48;;;;;;;0.90;0.90;;;9.80;99.90;;;;;;5046652;28;20168;-72
2021/09/20 02:56:14;;;;;;;0.20;0.20;;;9.90;99.90;;;;;;5065592;28;20193;-72
2021/09/20 02:58:40;;;;;;;0.40;0.40;;;9.80;99.90;;;;;;5067141;28;20173;-72
2021/09/20 03:01:06;;;;;;;0.73;0.73;;;9.80;99.90;;;;;;5068955;28;20480;-72
2021/09/20 03:03:31;;;;;;;0.30;0.20;;;9.80;99.90;;;;;;5071772;28;20161;-73
2021/09/20 03:05:57;;;;;;;0.00;0.00;;;9.70;99.90;;;;;;5070062;28;20227;-73
2021/09/20 03:08:23;;;;;;;0.40;0.40;;;9.70;99.90;;;;;;5071324;28;20179;-72
2021/09/20 03:10:49;;;;;;;1.10;1.02;;;9.80;99.90;;;;;;5071367;28;20173;-72
2021/09/20 03:13:15;;;;;;;0.90;0.68;;;9.70;99.90;;;;;;5070933;28;20222;-72
2021/09/20 03:15:41;;;;;;;1.38;1.20;;;9.80;99.90;;;;;;5069830;28;20192;-72
2021/09/20 03:18:07;;;;;;;0.10;0.10;;;9.80;99.90;;;;;;5070161;28;20160;-73
2021/09/20 03:20:33;;;;;;;1.02;1.02;;;9.80;99.90;;;;;;5071507;28;20168;-72
2021/09/20 03:22:58;;;;;;;0.20;0.20;;;9.80;99.90;;;;;;5071581;28;20190;-72
2021/09/20 03:25:24;;;;;;;1.10;1.00;;;9.90;99.90;;;;;;5071528;28;20200;-72
2021/09/20 03:27:50;;;;;;;0.35;0.35;;;9.80;99.90;;;;;;5071109;28;20194;-72
2021/09/20 03:30:19;;;;;;;0.88;0.88;;;9.70;99.90;;;;;;5071157;28;20248;-72
2021/09/20 03:32:46;;;;;;;0.32;0.32;;;9.70;99.90;;;;;;5071333;28;20165;-72
2021/09/20 03:35:15;;;;;;;0.43;0.25;;;9.70;99.90;;;;;;5071354;28;20298;-73
2021/09/20 03:37:46;;;;;;;2.55;0.63;;;9.60;99.90;;;;;;5071260;28;20222;-72
2021/09/20 03:40:14;;;;;;;0.50;0.50;;;9.50;99.90;;;;;;5070791;28;20250;-72
2021/09/20 03:42:41;;;;;;;0.52;0.47;;;9.60;99.90;;;;;;5070894;28;20606;-72
2021/09/20 03:45:08;;;;;;;0.40;0.32;;;9.60;99.90;;;;;;5070950;28;20225;-72
2021/09/20 03:47:34;;;;;;;0.95;0.95;;;9.60;99.90;;;;;;5071009;28;20199;-72
2021/09/20 03:50:00;;;;;;;0.65;0.65;;;9.70;99.90;;;;;;5052808;28;20243;-71
2021/09/20 03:52:26;;;;;;;0.00;0.00;;;9.60;99.90;;;;;;5052861;28;20173;-73
2021/09/20 03:54:52;;;;;;;0.90;0.40;;;9.60;99.90;;;;;;5070801;28;20161;-72
2021/09/20 03:57:17;;;;;;;0.10;0.10;;;9.50;99.90;;;;;;5070794;28;20203;-72
2021/09/20 03:59:43;;;;;;;0.68;0.68;;;9.50;99.90;;;;;;5070734;28;20168;-72
2021/09/20 04:02:09;;;;;;;0.57;0.55;;;9.50;99.90;;;;;;5070728;28;20625;-71
2021/09/20 04:04:35;;;;;;;0.50;0.50;;;9.60;99.90;;;;;;5070563;28;20169;-71
2021/09/20 04:07:04;;;;;;;0.40;0.40;;;9.60;99.90;;;;;;5070376;28;20215;-71
2021/09/20 04:09:30;;;;;;;0.28;0.28;;;9.50;99.90;;;;;;5070428;28;20614;-72
2021/09/20 04:11:57;;;;;;;0.10;0.10;;;9.50;99.90;;;;;;5070276;28;20157;-72
2021/09/20 04:14:22;;;;;;;1.17;0.73;;;9.60;99.90;;;;;;5052330;28;20265;-72
2021/09/20 04:16:49;;;;;;;0.35;0.28;;;9.60;99.90;;;;;;5070019;28;20207;-73
2021/09/20 04:19:14;;;;;;;0.30;0.30;;;9.60;99.90;;;;;;5052276;28;20172;-73
2021/09/20 04:21:40;;;;;;;0.05;0.05;;;9.60;99.90;;;;;;5052265;28;20272;-72
2021/09/20 04:24:06;;;;;;;0.22;0.22;;;9.70;99.90;;;;;;5070134;28;20161;-72
2021/09/20 04:26:32;;;;;;;0.50;0.50;;;9.70;99.90;;;;;;5070078;28;20207;-72
2021/09/20 04:28:58;;;;;;;0.10;0.10;;;9.60;99.90;;;;;;5070252;28;20156;-72
2021/09/20 04:31:24;;;;;;;2.03;1.13;;;9.60;99.90;;;;;;5052341;28;20200;-71
2021/09/20 04:33:51;;;;;;;0.75;0.65;;;9.60;99.90;;;;;;5070204;28;20161;-72
2021/09/20 04:36:17;;;;;;;3.65;1.35;;;9.70;99.90;;;;;;5070059;28;20188;-72
2021/09/20 04:38:43;;;;;;;0.10;0.10;;;9.70;99.90;;;;;;5069722;28;20156;-72
2021/09/20 04:41:09;;;;;;;0.15;0.15;;;9.70;99.90;;;;;;5069902;28;20164;-72
2021/09/20 04:43:35;;;;;;;0.40;0.40;;;9.70;99.90;;;;;;5069663;28;20215;-72
2021/09/20 04:46:00;;;;;;;0.60;0.60;;;9.70;99.90;;;;;;5069296;28;20207;-72
2021/09/20 04:48:26;;;;;;;0.88;0.40;;;9.60;99.90;;;;;;5069629;28;20157;-72
2021/09/20 04:50:53;;;;;;;0.75;0.52;;;9.60;99.90;;;;;;5069508;28;20209;-72
2021/09/20 04:53:18;;;;;;;0.20;0.20;;;9.70;99.90;;;;;;5069455;28;20157;-71
2021/09/20 04:55:47;;;;;;;1.23;1.13;;;9.60;99.90;;;;;;5051301;28;20203;-71
2021/09/20 04:58:13;;;;;;;0.50;0.50;;;9.60;99.90;;;;;;5069474;28;20175;-72
2021/09/20 05:00:40;;;;;;;0.50;0.50;;;9.60;99.90;;;;;;5051175;28;20173;-71
2021/09/20 05:03:06;;;;;;;0.57;0.32;;;9.60;99.90;;;;;;5051273;28;20319;-71
2021/09/20 05:05:32;;;;;;;0.00;0.00;;;9.60;99.90;;;;;;5051135;28;20200;-72
2021/09/20 05:07:59;;;;;;;1.90;0.98;;;9.60;99.90;;;;;;5069335;28;20200;-71
2021/09/20 05:10:25;;;;;;;0.17;0.17;;;9.50;99.90;;;;;;5050880;28;20195;-72
2021/09/20 05:12:51;;;;;;;0.73;0.70;;;9.60;99.90;;;;;;5068928;28;20236;-72
2021/09/20 05:15:17;;;;;;;0.10;0.10;;;9.60;99.90;;;;;;5068816;28;20157;-72
2021/09/20 05:17:44;;;;;;;1.33;0.70;;;9.50;99.90;;;;;;5068824;28;20276;-71
2021/09/20 05:20:12;;;;;;;0.30;0.30;;;9.60;99.90;;;;;;5068854;28;20191;-71
2021/09/20 05:22:38;;;;;;;0.20;0.20;;;9.60;99.90;;;;;;5050620;28;20238;-71
2021/09/20 05:25:05;;;;;;;0.10;0.10;;;9.60;99.90;;;;;;5068401;28;20161;-71
2021/09/20 05:27:31;;;;;;;1.23;0.73;;;9.50;99.90;;;;;;5068346;28;20232;-71
2021/09/20 05:29:58;;;;;;;0.10;0.10;;;9.60;99.90;;;;;;5068699;28;20157;-72
2021/09/20 05:32:25;;;;;;;0.95;0.43;;;9.60;99.90;;;;;;5068659;28;20179;-72
2021/09/20 05:34:51;;;;;;;0.88;0.88;;;9.60;99.90;;;;;;5068489;28;20236;-72
2021/09/20 05:37:17;;;;;;;1.00;1.00;;;9.60;99.90;;;;;;5068397;28;20211;-72
2021/09/20 05:39:44;;;;;;;0.15;0.15;;;9.60;99.90;;;;;;5069502;28;20184;-72
2021/09/20 05:42:17;;;;;;;1.58;1.48;;;9.60;99.90;;;;;;5068514;28;20192;-71
2021/09/20 05:44:44;;;;;;;0.10;0.10;;;9.60;99.90;;;;;;5068933;28;20200;-71
2021/09/20 05:47:10;;;;;;;0.47;0.47;;;9.60;99.90;;;;;;5050776;28;20277;-73
2021/09/20 05:49:36;;;;;;;0.40;0.40;;;9.60;99.90;;;;;;5068666;28;20157;-70
2021/09/20 05:52:03;;;;;;;0.43;0.43;;;9.50;99.90;;;;;;5068242;28;20234;-70
2021/09/20 05:54:29;;;;;;;0.93;0.93;;;9.50;99.90;;;;;;5050154;28;20230;-70
2021/09/20 05:56:55;;;;;;;0.57;0.57;;;9.60;99.90;;;;;;5050320;28;20164;-70
2021/09/20 05:59:20;;;;;;;0.13;0.13;;;9.60;99.90;;;;;;5068179;28;20165;-71
2021/09/20 06:01:47;;;;;;;0.65;0.65;;;9.60;99.90;;;;;;5050369;28;20236;-71
2021/09/20 06:04:12;;;;;;;0.55;0.55;;;9.70;99.90;;;;;;5050408;28;20204;-72
2021/09/20 06:06:38;;;;;;;0.10;0.10;;;9.70;99.90;;;;;;5068325;28;20199;-71
2021/09/20 06:09:04;;;;;;;0.35;0.35;;;9.70;99.90;;;;;;5050196;28;20175;-71
2021/09/20 06:11:31;;;;;;;0.20;0.20;;;9.70;99.90;;;;;;5068195;28;20157;-70
2021/09/20 06:13:57;;;;;;;1.92;1.27;;;9.70;99.90;;;;;;5067894;28;20206;-70
2021/09/20 06:16:24;;;;;;;0.10;0.10;;;9.70;99.90;;;;;;5067842;28;20578;-70
2021/09/20 06:18:50;;;;;;;0.22;0.22;;;9.70;99.90;;;;;;5068010;28;20222;-70
2021/09/20 06:21:16;;;;;;;0.10;0.10;;;9.80;99.90;;;;;;5067792;28;20161;-71
2021/09/20 06:23:43;;;;;;;0.17;0.17;;;9.70;99.90;;;;;;5066595;28;20190;-70
2021/09/20 06:26:09;;;;;;;0.20;0.20;;;9.70;99.90;;;;;;5063546;28;20196;-70
2021/09/20 06:28:35;;;;;;;0.10;0.10;;;9.70;99.90;;;;;;5065839;28;20184;-70
2021/09/20 06:31:04;;;;;;;1.35;0.35;;;9.60;99.90;;;;;;5067517;28;20180;-71
2021/09/20 06:33:31;;;;;;;0.40;0.40;;;9.60;99.90;;;;;;5067599;28;20152;-70
2021/09/20 06:35:58;;;;;;;0.40;0.40;;;9.50;99.90;;;;;;5066832;28;20209;-70
2021/09/20 06:38:24;;;;;;;0.00;0.00;;;9.50;99.90;;;;;;5066972;28;20160;-70
2021/09/20 06:40:50;;;;;;;0.10;0.10;;;9.50;99.90;;;;;;5067574;28;20176;-71
2021/09/20 06:43:16;;;;;;;0.88;0.88;;;9.50;99.90;;;;;;5065966;28;20231;-71
2021/09/20 06:45:42;;;;;;;0.22;0.22;;;9.60;99.90;;;;;;5067224;28;20172;-71
2021/09/20 06:48:08;;;;;;;0.40;0.40;;;9.70;99.90;;;;;;5066927;28;20257;-70
2021/09/20 06:50:34;;;;;;;0.70;0.70;;;9.70;99.90;;;;;;5048914;28;20227;-71
2021/09/20 06:53:00;;;;;;;0.10;0.10;;;9.70;99.90;;;;;;5067355;28;20164;-70
2021/09/20 06:55:26;;;;;;;0.40;0.40;;;9.80;99.90;;;;;;5067426;28;20193;-70
2021/09/20 06:57:59;;;;;;;1.20;1.17;;;9.90;99.90;;;;;;5067365;28;20192;-70
2021/09/20 07:00:26;;;;;;;0.17;0.17;;;9.90;99.90;;;;;;5066796;28;20184;-71
2021/09/20 07:02:52;;;;;;;0.00;0.00;;;9.90;99.90;;;;;;5049288;28;20172;-70
2021/09/20 07:05:17;;;;;;;0.43;0.43;;;9.90;99.90;;;;;;5049369;28;20184;-70
2021/09/20 07:07:43;;;;;;;0.05;0.05;;;9.90;99.90;;;;;;5067303;28;20211;-70
2021/09/20 07:10:12;;;;;;;0.28;0.28;;;9.80;99.90;;;;;;5067440;28;20165;-70
2021/09/20 07:12:38;;;;;;;0.20;0.20;;;9.90;99.90;;;;;;5049260;28;20172;-70
2021/09/20 07:15:06;;;;;;;0.20;0.20;;;9.80;99.90;;;;;;5067414;28;20187;-70
2021/09/20 07:17:32;;;;;;;0.22;0.22;;;9.90;99.90;;;;;;5067364;28;20215;-70
2021/09/20 07:19:58;;;;;;;0.55;0.55;;;9.90;99.90;;;;;;5067408;28;20188;-70
2021/09/20 07:22:24;;;;;;;0.10;0.10;;;9.90;99.90;;;;;;5067363;28;20165;-70
2021/09/20 07:24:49;;;;;;;3.92;0.98;;;9.90;99.90;;;;;;5067347;28;20161;-70
2021/09/20 07:27:15;;;;;;;0.10;0.10;;;9.90;99.90;;;;;;5067140;28;20228;-72
2021/09/20 07:29:42;;;;;;;0.85;0.85;;;10.00;99.90;;;;;;5066755;28;20196;-70
2021/09/20 07:32:07;;;;;;;0.52;0.52;;;10.00;99.90;;;;;;5067002;28;20153;-70
2021/09/20 07:34:33;;;;;;;0.00;0.00;;;10.10;99.90;;;;;;5067203;28;20168;-71
2021/09/20 07:37:00;;;;;;;0.05;0.05;;;10.10;99.90;;;;;;5067251;28;20215;-72
2021/09/20 07:39:25;;;;;;;0.70;0.20;;;10.20;99.90;;;;;;5067321;28;20183;-70
2021/09/20 07:41:51;;;;;;;0.35;0.35;;;10.30;99.90;;;;;;5067034;28;20196;-70
2021/09/20 07:44:17;;;;;;;0.15;0.15;;;10.30;99.90;;;;;;5067224;28;20161;-71
2021/09/20 07:46:43;;;;;;;0.00;0.00;;;10.30;99.90;;;;;;5068022;28;20230;-71
2021/09/20 07:49:09;;;;;;;0.50;0.50;;;10.40;99.90;;;;;;5052662;28;20172;-71
2021/09/20 07:51:35;;;;;;;0.00;0.00;;;10.40;99.90;;;;;;5070630;28;20216;-71
2021/09/20 07:54:01;;;;;;;0.10;0.10;;;10.40;99.90;;;;;;5070568;28;20227;-70
2021/09/20 07:56:31;;;;;;;0.00;0.00;;;10.50;99.90;;;;;;5052383;28;20602;-70
2021/09/20 07:58:57;;;;;;;0.00;0.00;;;10.30;99.90;;;;;;5070653;28;20240;-70
2021/09/20 08:01:23;;;;;;;0.40;0.40;;;10.30;99.90;;;;;;5070325;28;20188;-70
2021/09/20 08:03:49;;;;;;;0.88;0.88;;;10.20;99.90;;;;;;5070370;28;20220;-70
2021/09/20 08:06:17;;;;;;;0.22;0.22;;;10.20;99.90;;;;;;5070199;28;20184;-70
2021/09/20 08:08:44;;;;;;;0.80;0.55;;;10.40;99.90;;;;;;5070285;28;20169;-70
2021/09/20 08:11:11;;;;;;;0.00;0.00;;;10.40;99.90;;;;;;5070368;28;20165;-70
2021/09/20 08:13:38;;;;;;;0.10;0.10;;;10.40;99.90;;;;;;5070390;28;20167;-70
2021/09/20 08:16:04;;;;;;;0.32;0.32;;;10.60;99.90;;;;;;5070638;28;20158;-70
2021/09/20 08:18:30;;;;;;;0.40;0.40;;;10.60;99.90;;;;;;5070339;28;20192;-70
2021/09/20 08:20:56;;;;;;;0.38;0.38;;;10.70;99.90;;;;;;5070321;28;20156;-70
2021/09/20 08:23:22;;;;;;;0.32;0.32;;;10.90;99.90;;;;;;5069921;28;20153;-70
2021/09/20 08:25:49;;;;;;;0.25;0.25;;;11.00;99.90;;;;;;5070143;28;20184;-70
2021/09/20 08:28:16;;;;;;;0.22;0.22;;;11.00;99.90;;;;;;5069849;28;20196;-71
2021/09/20 08:30:42;;;;;;;0.00;0.00;;;11.10;99.90;;;;;;5051848;28;20169;-71
2021/09/20 08:33:08;;;;;;;0.52;0.52;;;11.10;99.90;;;;;;5069927;28;20215;-70
2021/09/20 08:35:34;;;;;;;0.32;0.32;;;11.10;99.90;;;;;;5069964;28;20582;-71
2021/09/20 08:38:00;;;;;;;0.45;0.45;;;11.00;99.90;;;;;;5069719;28;20197;-70
2021/09/20 08:40:28;;;;;;;0.10;0.10;;;11.00;99.90;;;;;;5051924;28;20173;-72
2021/09/20 08:42:55;;;;;;;0.00;0.00;;;10.90;99.90;;;;;;5069655;28;20206;-70
2021/09/20 08:45:24;;;;;;;0.20;0.20;;;10.80;99.90;;;;;;5069769;28;20164;-70
2021/09/20 08:47:52;;;;;;;0.22;0.22;;;10.90;99.90;;;;;;5069506;28;20200;-73
2021/09/20 08:50:26;;;;;;;0.10;0.10;;;11.00;99.90;;;;;;5069569;28;20278;-70
2021/09/20 08:52:53;;;;;;;0.20;0.20;;;11.00;99.90;;;;;;5069693;28;20183;-69
2021/09/20 08:55:19;;;;;;;0.75;0.63;;;11.10;99.90;;;;;;5069460;28;20223;-71
2021/09/20 08:57:45;;;;;;;0.00;0.00;;;11.10;99.90;;;;;;5068746;28;20638;-71
2021/09/20 09:00:12;;;;;;;0.10;0.10;;;11.40;99.90;;;;;;5051183;28;20180;-71
2021/09/20 09:02:39;;;;;;;0.40;0.40;;;11.60;99.90;;;;;;5069412;28;20161;-70
2021/09/20 09:05:26;;;;;;;0.20;0.20;;;11.80;99.90;;;;;;5069571;28;20165;-71
2021/09/20 09:08:00;;;;;;;0.20;0.20;;;11.60;99.90;;;;;;5069066;28;20207;-71
2021/09/20 09:10:29;;;;;;;0.00;0.00;;;11.50;99.90;;;;;;5069308;28;20165;-72
2021/09/20 09:12:56;;;;;;;0.55;0.55;;;11.50;99.90;;;;;;5050608;28;20202;-71
2021/09/20 09:15:25;;;;;;;0.20;0.20;;;11.50;99.90;;;;;;5065229;28;20180;-71
2021/09/20 09:17:54;;;;;;;0.20;0.20;;;11.30;99.90;;;;;;5049598;28;20196;-72
2021/09/20 09:20:24;;;;;;;0.10;0.10;;;11.60;99.90;;;;;;5066607;28;20203;-72
2021/09/20 09:23:05;;;;;;;0.10;0.10;;;11.80;99.90;;;;;;5067831;28;20161;-71
2021/09/20 09:25:52;;;;;;;0.10;0.10;;;12.00;99.90;;;;;;5048653;28;20169;-71
2021/09/20 09:28:19;;;;;;;0.00;0.00;;;12.20;99.90;;;;;;5067359;28;20214;-72
2021/09/20 09:30:48;;;;;;;0.55;0.55;;;12.50;99.90;;;;;;5067750;28;20167;-72
2021/09/20 09:33:47;;;;;;;0.00;0.00;;;12.50;99.90;;;;;;5049893;28;20219;-72
2021/09/20 09:36:15;;;;;;;0.20;0.20;;;12.40;99.90;;;;;;4969277;28;20176;-72
2021/09/20 09:39:01;;;;;;;0.00;0.00;;;12.40;99.90;;;;;;4959407;28;20180;-72
2021/09/20 09:41:41;;;;;;;1.10;1.05;;;12.50;99.90;;;;;;4976920;28;20508;-71
2021/09/20 09:44:14;;;;;;;0.08;0.08;;;12.80;99.90;;;;;;4969402;28;20206;-71
2021/09/20 09:46:43;;;;;;;0.28;0.28;;;12.70;99.90;;;;;;4959190;28;20279;-70
2021/09/20 09:49:11;;;;;;;0.32;0.32;;;12.10;99.90;;;;;;4976606;28;20171;-71
2021/09/20 09:52:09;;;;;;;0.13;0.13;;;11.70;99.90;;;;;;4968929;28;20298;-71
2021/09/20 09:54:38;;;;;;;2.63;0.75;;;11.60;99.90;;;;;;4963545;29;20195;-71
2021/09/20 09:57:17;;;;;;;0.80;0.73;;;11.70;99.90;;;;;;4968211;29;20196;-71
2021/09/20 09:59:54;;;;;;;0.10;0.10;;;11.80;99.90;;;;;;4968179;29;20188;-70
2021/09/20 10:02:40;;;;;;;0.22;0.22;;;11.80;99.90;;;;;;4967744;29;20168;-70
2021/09/20 10:05:08;;;;;;;0.45;0.45;;;11.80;99.90;;;;;;4951592;29;20270;-70
2021/09/20 10:07:46;;;;;;;0.10;0.10;;;11.70;99.90;;;;;;4977614;28;20238;-70
2021/09/20 10:10:24;;;;;;;0.40;0.40;;;11.80;99.90;;;;;;4986994;28;20190;-70
2021/09/20 10:12:52;;;;;;;0.10;0.10;;;12.10;99.90;;;;;;5063158;28;20267;-70
2021/09/20 10:15:20;;;;;;;0.28;0.28;;;12.00;99.90;;;;;;5068044;28;20173;-70
2021/09/20 10:17:46;;;;;;;0.75;0.38;;;12.10;99.90;;;;;;5049886;28;20196;-70
2021/09/20 10:20:16;;;;;;;0.10;0.10;;;12.10;99.90;;;;;;5067897;28;20172;-70
2021/09/20 10:22:43;;;;;;;0.52;0.52;;;12.10;99.90;;;;;;5067999;28;20180;-70
2021/09/20 10:25:12;;;;;;;0.43;0.43;;;12.20;99.90;;;;;;5067857;28;20192;-70
2021/09/20 10:27:38;;;;;;;2.90;0.65;;;12.30;99.90;;;;;;5067785;28;20235;-70
2021/09/20 10:30:13;;;;;;;0.43;0.43;;;12.30;99.90;;;;;;5067855;28;20157;-70
2021/09/20 10:32:43;;;;;;;0.00;0.00;;;12.50;99.90;;;;;;5067888;28;20259;-70
2021/09/20 10:35:30;;;;;;;0.57;0.50;;;12.70;99.90;;;;;;5067922;28;20167;-70
2021/09/20 10:37:59;;;;;;;2.92;0.60;;;12.50;99.90;;;;;;5049903;28;20192;-70
2021/09/20 10:40:27;;;;;;;0.20;0.20;;;12.40;99.90;;;;;;5067874;28;20172;-71
2021/09/20 10:42:57;;;;;;;0.40;0.40;;;12.40;99.90;;;;;;5049606;28;20185;-70
2021/09/20 10:45:55;;;;;;;1.13;1.05;;;12.20;99.90;;;;;;5066256;28;20200;-70
2021/09/20 10:48:49;;;;;;;1.08;1.00;;;12.40;99.90;;;;;;5050026;28;20216;-72
2021/09/20 10:51:18;;;;;;;1.02;1.02;;;12.30;99.90;;;;;;5067810;28;20224;-71
2021/09/20 10:53:45;;;;;;;0.63;0.60;;;12.40;99.90;;;;;;5067955;28;20157;-71
2021/09/20 10:56:15;;;;;;;0.20;0.20;;;12.40;99.90;;;;;;5050733;28;20201;-72
2021/09/20 10:58:43;;;;;;;0.10;0.10;;;12.10;99.90;;;;;;5050528;28;20157;-72
2021/09/20 11:01:11;;;;;;;1.20;1.20;;;12.10;99.90;;;;;;5068579;28;20181;-72
2021/09/20 11:04:01;;;;;;;0.30;0.30;;;12.20;99.90;;;;;;5063216;28;21455;-72
2021/09/20 11:06:31;;;;;;;0.10;0.10;;;12.30;99.90;;;;;;5064245;28;20211;-71
2021/09/20 11:09:02;;;;;;;0.20;0.20;;;12.40;99.90;;;;;;5067508;28;20161;-70
2021/09/20 11:14:05;;;;;;;0.00;0.00;;;12.70;99.90;;;;;;5067869;28;20228;-71
2021/09/20 11:17:01;;;;;;;0.10;0.10;;;12.80;99.90;;;;;;5049182;28;20256;-71
2021/09/20 11:19:33;;;;;;;0.25;0.25;;;13.40;99.90;;;;;;5005594;28;20257;-70
2021/09/20 11:22:14;;;;;;;0.20;0.20;;;14.00;99.90;;;;;;5007117;28;20656;-71
2021/09/20 11:24:54;;;;;;;0.10;0.10;;;14.40;99.90;;;;;;5009603;28;20678;-71
2021/09/20 11:27:24;;;;;;;0.08;0.08;;;15.00;99.90;;;;;;4992207;28;20228;-70
2021/09/20 11:29:52;;;;;;;0.00;0.00;;;15.20;99.90;;;;;;5009388;28;20272;-69
2021/09/20 11:32:19;;;;;;;0.30;0.30;;;15.40;99.90;;;;;;5009345;28;20248;-71
2021/09/20 11:34:48;;;;;;;0.45;0.45;;;15.50;99.90;;;;;;5009480;28;20175;-71
2021/09/20 11:37:29;;;;;;;0.10;0.10;;;15.60;99.90;;;;;;5009346;28;20265;-71
2021/09/20 11:39:58;;;;;;;0.98;0.98;;;15.90;99.90;;;;;;5009076;28;20178;-72
2021/09/20 11:42:46;;;;;;;0.43;0.43;;;16.50;99.90;;;;;;5009385;28;20227;-71
2021/09/20 11:45:36;;;;;;;0.35;0.35;;;17.10;99.90;;;;;;5011583;28;20184;-71
2021/09/20 11:48:17;;;;;;;0.95;0.95;;;17.40;99.90;;;;;;5028264;28;20213;-71
2021/09/20 11:50:43;;;;;;;0.20;0.10;;;16.80;99.90;;;;;;5028704;28;20226;-71
2021/09/20 11:53:13;;;;;;;0.47;0.38;;;16.60;99.90;;;;;;5028887;28;20221;-72
2021/09/20 11:55:44;;;;;;;2.05;0.57;;;16.00;99.90;;;;;;5037896;28;20189;-71
2021/09/20 11:58:20;;;;;;;0.45;0.45;;;15.70;99.90;;;;;;5050717;28;20165;-70
2021/09/20 12:00:49;;;;;;;0.82;0.82;;;15.60;99.90;;;;;;5050067;28;20188;-70
2021/09/20 12:03:18;;;;;;;0.15;0.15;;;15.10;99.90;;;;;;5032736;28;20676;-70
2021/09/20 12:05:45;;;;;;;0.10;0.10;;;14.80;99.90;;;;;;5050367;28;20196;-70
2021/09/20 12:08:15;;;;;;;0.47;0.43;;;14.50;99.90;;;;;;5049264;28;20212;-70
2021/09/20 12:10:48;;;;;;;0.25;0.25;;;14.30;99.90;;;;;;5057142;28;20181;-70
2021/09/20 12:13:16;;;;;;;0.20;0.20;;;14.40;99.90;;;;;;5070323;28;20153;-70
2021/09/20 12:15:46;;;;;;;0.35;0.35;;;14.30;99.90;;;;;;5070098;28;20185;-70
2021/09/20 12:18:14;;;;;;;0.00;0.00;;;14.20;99.90;;;;;;5052125;28;20176;-70
2021/09/20 12:20:43;;;;;;;0.35;0.35;;;14.10;99.90;;;;;;5067675;28;20180;-71
2021/09/20 12:23:21;;;;;;;0.63;0.63;;;14.30;99.90;;;;;;5067775;28;20180;-70
2021/09/20 12:25:50;;;;;;;0.10;0.10;;;14.20;99.90;;;;;;5067551;28;20188;-71
2021/09/20 12:28:22;;;;;;;3.40;0.60;;;14.10;99.90;;;;;;5069356;28;20201;-71
2021/09/20 12:31:16;;;;;;;1.02;1.02;;;14.10;99.90;;;;;;5059325;28;20198;-71
2021/09/20 12:33:54;;;;;;;0.10;0.10;;;13.90;99.90;;;;;;5047286;28;20189;-70
2021/09/20 12:36:32;;;;;;;0.10;0.10;;;13.80;99.90;;;;;;5052163;28;20201;-71
2021/09/20 12:39:26;;;;;;;0.00;0.00;;;13.70;99.90;;;;;;5052189;28;20160;-70
2021/09/20 12:42:04;;;;;;;0.45;0.45;;;13.60;99.90;;;;;;5069312;28;20192;-70
2021/09/20 12:44:56;;;;;;;3.15;0.63;;;13.60;99.90;;;;;;5069805;28;20196;-70
2021/09/20 12:47:26;;;;;;;0.20;0.20;;;13.70;99.90;;;;;;5066680;28;20220;-71
2021/09/20 12:50:10;;;;;;;0.30;0.30;;;13.60;99.90;;;;;;5051567;28;20185;-70
2021/09/20 12:52:42;;;;;;;0.15;0.15;;;13.50;99.90;;;;;;5067239;28;20600;-71
2021/09/20 12:55:10;;;;;;;0.68;0.55;;;13.30;99.90;;;;;;5068886;28;20165;-71
2021/09/20 12:57:36;;;;;;;0.32;0.32;;;13.40;99.90;;;;;;5074098;28;20183;-71
2021/09/20 13:00:06;;;;;;;0.10;0.10;;;13.40;99.90;;;;;;5089107;28;20168;-70